Time;durP1;ratioP1;P1;durP2;ratioP2;P2;SDS_P1;SDS_P2;PMS_P1;PMS_P2;Temp;Humidity;BMP_temperature;BMP_pressure;BME280_temperature;BME280_humidity;BME280_pressure;Samples;Min_cycle;Max_cycle;Signal;HPM_P1;HPM_P2
2021/07/16 00:00:34;;;;;;;13.07;5.23;;;18.40;99.90;;;;;;5001122;28;20178;-82
2021/07/16 00:02:59;;;;;;;13.53;5.07;;;18.40;99.90;;;;;;4984561;28;20235;-82
2021/07/16 00:05:25;;;;;;;17.57;5.13;;;18.40;99.90;;;;;;4984112;28;20184;-82
2021/07/16 00:07:50;;;;;;;14.67;5.40;;;18.30;99.90;;;;;;4985129;28;20628;-82
2021/07/16 00:10:18;;;;;;;14.13;4.90;;;18.30;99.90;;;;;;4983702;28;20187;-82
2021/07/16 00:12:44;;;;;;;15.93;5.20;;;18.30;99.90;;;;;;5000567;28;20687;-82
2021/07/16 00:15:10;;;;;;;12.97;5.00;;;18.40;99.90;;;;;;4984248;28;20235;-81
2021/07/16 00:17:36;;;;;;;14.67;5.00;;;18.30;99.90;;;;;;4984808;28;20676;-82
2021/07/16 00:20:03;;;;;;;13.53;5.00;;;18.30;99.90;;;;;;4984662;28;20179;-82
2021/07/16 00:22:29;;;;;;;11.83;4.87;;;18.30;99.90;;;;;;4983993;28;20634;-82
2021/07/16 00:24:54;;;;;;;14.33;4.87;;;18.30;99.90;;;;;;4983655;28;20180;-82
2021/07/16 00:27:20;;;;;;;16.93;5.47;;;18.20;99.90;;;;;;4985182;28;20188;-81
2021/07/16 00:29:45;;;;;;;15.63;4.70;;;18.20;99.90;;;;;;4986497;28;20377;-82
2021/07/16 00:32:11;;;;;;;11.87;4.67;;;18.20;99.90;;;;;;4986618;28;20204;-82
2021/07/16 00:34:37;;;;;;;13.10;4.40;;;18.20;99.90;;;;;;5002767;28;20661;-82
2021/07/16 00:37:02;;;;;;;13.60;4.63;;;18.20;99.90;;;;;;4988396;28;20172;-82
2021/07/16 00:39:28;;;;;;;13.63;4.53;;;18.20;99.90;;;;;;4987270;28;20184;-82
2021/07/16 00:41:53;;;;;;;17.03;4.73;;;18.20;99.90;;;;;;4988527;28;20320;-82
2021/07/16 00:44:19;;;;;;;13.93;4.77;;;18.20;99.90;;;;;;4988058;28;20176;-82
2021/07/16 00:46:45;;;;;;;13.50;4.90;;;18.20;99.90;;;;;;4987567;28;20228;-82
2021/07/16 00:49:11;;;;;;;13.73;4.87;;;18.20;99.90;;;;;;5003217;28;20235;-82
2021/07/16 00:51:36;;;;;;;15.20;5.07;;;18.20;99.90;;;;;;4987989;28;20199;-82
2021/07/16 00:54:02;;;;;;;12.47;4.47;;;18.10;99.90;;;;;;4988116;28;20224;-81
2021/07/16 00:56:27;;;;;;;16.83;5.20;;;18.10;99.90;;;;;;4988447;28;20267;-81
2021/07/16 00:58:53;;;;;;;16.07;5.80;;;18.00;99.90;;;;;;4987588;28;20632;-82
2021/07/16 01:01:18;;;;;;;16.93;5.50;;;18.10;99.90;;;;;;4986945;28;20263;-82
2021/07/16 01:03:44;;;;;;;18.07;5.70;;;18.00;99.90;;;;;;4987704;28;20204;-81
2021/07/16 01:06:10;;;;;;;15.87;5.30;;;18.00;99.90;;;;;;4987639;28;20674;-82
2021/07/16 01:08:35;;;;;;;12.80;5.03;;;18.00;99.90;;;;;;4987979;28;20235;-82
2021/07/16 01:11:01;;;;;;;16.37;5.30;;;18.00;99.90;;;;;;4986523;28;20216;-82
2021/07/16 01:13:26;;;;;;;16.50;5.20;;;18.00;99.90;;;;;;4987641;28;20267;-82
2021/07/16 01:15:54;;;;;;;15.93;6.20;;;18.00;99.90;;;;;;5003859;28;20251;-82
2021/07/16 01:18:19;;;;;;;11.57;5.33;;;18.00;99.90;;;;;;4987693;28;20176;-82
2021/07/16 01:20:45;;;;;;;12.37;5.30;;;18.00;99.90;;;;;;4987032;28;20263;-82
2021/07/16 01:23:17;;;;;;;14.03;5.07;;;17.90;99.90;;;;;;4986013;28;20184;-82
2021/07/16 01:25:42;;;;;;;12.70;4.90;;;17.90;99.90;;;;;;5002336;28;20177;-81
2021/07/16 01:28:08;;;;;;;13.27;4.97;;;17.90;99.90;;;;;;4985295;28;20195;-82
2021/07/16 01:30:34;;;;;;;11.97;4.80;;;17.90;99.90;;;;;;4986464;28;20172;-82
2021/07/16 01:33:01;;;;;;;13.27;5.00;;;17.80;99.90;;;;;;4986643;28;20227;-81
2021/07/16 01:35:26;;;;;;;12.90;5.10;;;17.80;99.90;;;;;;5003409;28;20230;-82
2021/07/16 01:37:52;;;;;;;11.27;5.23;;;17.80;99.90;;;;;;4986800;28;20655;-82
2021/07/16 01:40:18;;;;;;;13.50;4.87;;;17.80;99.90;;;;;;4986127;28;20267;-82
2021/07/16 01:42:46;;;;;;;10.87;4.80;;;17.80;99.90;;;;;;4987434;28;20204;-82
2021/07/16 01:45:16;;;;;;;12.67;4.80;;;17.80;99.90;;;;;;4986765;28;20610;-82
2021/07/16 01:47:54;;;;;;;12.60;5.23;;;17.70;99.90;;;;;;4987187;28;20191;-81
2021/07/16 01:50:20;;;;;;;11.17;5.00;;;17.70;99.90;;;;;;5003264;28;20172;-81
2021/07/16 01:52:46;;;;;;;9.43;4.90;;;17.70;99.90;;;;;;4986537;28;20215;-81
2021/07/16 01:55:13;;;;;;;10.83;4.70;;;17.70;99.90;;;;;;4986954;28;20566;-82
2021/07/16 01:57:38;;;;;;;10.33;4.57;;;17.70;99.90;;;;;;4986897;28;20211;-82
2021/07/16 02:00:10;;;;;;;13.43;4.93;;;17.70;99.90;;;;;;4986613;28;20176;-82
2021/07/16 02:02:36;;;;;;;10.70;4.37;;;17.70;99.90;;;;;;5003847;28;20203;-82
2021/07/16 02:05:02;;;;;;;11.27;4.67;;;17.70;99.90;;;;;;4986843;28;20191;-81
2021/07/16 02:07:28;;;;;;;11.93;4.60;;;17.60;99.90;;;;;;4986217;28;20198;-82
2021/07/16 02:09:53;;;;;;;10.03;4.70;;;17.60;99.90;;;;;;4986491;28;20180;-82
2021/07/16 02:12:19;;;;;;;13.93;4.80;;;17.60;99.90;;;;;;4985860;28;20212;-82
2021/07/16 02:14:45;;;;;;;8.30;4.80;;;17.50;99.90;;;;;;4986772;28;20208;-82
2021/07/16 02:17:10;;;;;;;6.97;4.77;;;17.60;99.90;;;;;;4985719;28;20696;-82
2021/07/16 02:19:36;;;;;;;7.63;4.60;;;17.60;99.90;;;;;;4986490;28;20180;-82
2021/07/16 02:22:06;;;;;;;11.83;5.00;;;17.60;99.90;;;;;;4985858;28;20206;-82
2021/07/16 02:24:33;;;;;;;8.10;4.33;;;17.50;99.90;;;;;;5000309;28;20640;-81
2021/07/16 02:26:58;;;;;;;10.30;5.03;;;17.60;99.90;;;;;;4995063;28;20183;-81
2021/07/16 02:29:24;;;;;;;13.43;5.37;;;17.50;99.90;;;;;;4978213;28;20184;-81
2021/07/16 02:31:51;;;;;;;10.37;5.47;;;17.50;99.90;;;;;;4978354;28;20223;-81
2021/07/16 02:34:16;;;;;;;11.60;5.57;;;17.40;99.90;;;;;;4978633;28;20214;-81
2021/07/16 02:36:43;;;;;;;12.47;5.50;;;17.40;99.90;;;;;;4978878;28;20208;-81
2021/07/16 02:39:08;;;;;;;11.00;5.43;;;17.50;99.90;;;;;;4978276;28;20187;-81
2021/07/16 02:41:34;;;;;;;16.50;5.83;;;17.40;99.90;;;;;;4978484;28;20499;-81
2021/07/16 02:44:00;;;;;;;14.73;5.50;;;17.50;99.90;;;;;;4978505;28;20191;-81
2021/07/16 02:46:25;;;;;;;17.07;6.43;;;17.30;99.90;;;;;;4978146;28;20211;-81
2021/07/16 02:48:51;;;;;;;15.50;5.80;;;17.50;99.90;;;;;;4977608;28;20667;-81
2021/07/16 02:51:16;;;;;;;15.53;6.17;;;17.50;99.90;;;;;;4977982;28;20790;-81
2021/07/16 02:53:42;;;;;;;13.73;6.40;;;17.50;99.90;;;;;;4994502;28;20208;-81
2021/07/16 02:56:07;;;;;;;16.23;6.37;;;17.40;99.90;;;;;;4978189;28;20222;-81
2021/07/16 02:58:33;;;;;;;14.57;6.03;;;17.30;99.90;;;;;;4977747;28;20545;-81
2021/07/16 03:00:59;;;;;;;14.73;6.67;;;17.30;99.90;;;;;;4977780;28;20203;-81
2021/07/16 03:03:26;;;;;;;19.63;6.50;;;17.20;99.90;;;;;;4977917;28;20558;-81
2021/07/16 03:05:51;;;;;;;14.97;6.20;;;17.30;99.90;;;;;;4978434;28;20176;-81
2021/07/16 03:08:17;;;;;;;13.40;6.00;;;17.30;99.90;;;;;;4978100;28;20238;-81
2021/07/16 03:10:44;;;;;;;15.63;5.90;;;17.40;99.90;;;;;;4977640;28;20339;-81
2021/07/16 03:13:11;;;;;;;14.17;5.57;;;17.30;99.90;;;;;;4977552;28;20200;-81
2021/07/16 03:15:37;;;;;;;16.07;6.53;;;17.30;99.90;;;;;;4978136;28;20184;-81
2021/07/16 03:18:03;;;;;;;11.33;5.67;;;17.30;99.90;;;;;;4977664;28;20529;-81
2021/07/16 03:20:34;;;;;;;9.93;5.50;;;17.20;99.90;;;;;;4977562;28;20180;-81
2021/07/16 03:22:59;;;;;;;15.47;6.17;;;17.30;99.90;;;;;;4977870;28;20173;-81
2021/07/16 03:25:25;;;;;;;11.93;5.53;;;17.30;99.90;;;;;;4977452;28;20184;-81
2021/07/16 03:27:51;;;;;;;13.20;5.47;;;17.20;99.90;;;;;;4993955;28;20211;-81
2021/07/16 03:30:28;;;;;;;13.50;5.97;;;17.20;99.90;;;;;;4977687;28;20184;-81
2021/07/16 03:32:54;;;;;;;13.70;6.00;;;17.20;99.90;;;;;;4977212;28;20203;-81
2021/07/16 03:35:19;;;;;;;15.33;5.80;;;17.30;99.90;;;;;;4977293;28;20557;-81
2021/07/16 03:37:45;;;;;;;15.50;6.30;;;17.20;99.90;;;;;;4993856;28;20173;-81
2021/07/16 03:40:13;;;;;;;11.93;5.60;;;17.20;99.90;;;;;;4977294;28;20184;-81
2021/07/16 03:42:38;;;;;;;11.63;5.70;;;17.20;99.90;;;;;;4977458;28;20192;-81
2021/07/16 03:45:05;;;;;;;11.40;5.30;;;17.30;99.90;;;;;;4977350;28;20222;-81
2021/07/16 03:47:30;;;;;;;14.97;5.93;;;17.10;99.90;;;;;;4993821;28;20184;-81
2021/07/16 03:49:57;;;;;;;13.77;5.37;;;17.20;99.90;;;;;;4977032;28;20188;-81
2021/07/16 03:52:22;;;;;;;15.57;5.80;;;17.20;99.90;;;;;;4977721;28;20203;-81
2021/07/16 03:54:49;;;;;;;11.10;5.43;;;17.20;99.90;;;;;;4993514;28;20200;-81
2021/07/16 03:57:15;;;;;;;14.67;5.77;;;17.20;99.90;;;;;;4993754;28;20176;-81
2021/07/16 03:59:40;;;;;;;12.40;5.30;;;17.10;99.90;;;;;;4977306;28;20176;-81
2021/07/16 04:02:06;;;;;;;17.40;5.40;;;17.20;99.90;;;;;;4979442;28;20291;-82
2021/07/16 04:04:33;;;;;;;17.50;5.40;;;17.10;99.90;;;;;;4981149;28;20651;-82
2021/07/16 04:06:59;;;;;;;13.10;5.03;;;17.20;99.90;;;;;;4981330;28;20263;-81
2021/07/16 04:09:27;;;;;;;17.83;6.10;;;17.10;99.90;;;;;;4981305;28;20613;-81
2021/07/16 04:12:15;;;;;;;14.13;5.20;;;17.10;99.90;;;;;;4996849;28;20220;-81
2021/07/16 04:14:47;;;;;;;18.07;5.70;;;17.10;99.90;;;;;;4981320;28;20215;-81
2021/07/16 04:17:18;;;;;;;17.30;5.17;;;17.00;99.90;;;;;;4980712;28;20176;-81
2021/07/16 04:19:44;;;;;;;20.20;4.93;;;17.10;99.90;;;;;;4980823;28;20632;-81
2021/07/16 04:22:09;;;;;;;16.47;5.43;;;17.20;99.90;;;;;;4980697;28;20196;-81
2021/07/16 04:24:39;;;;;;;16.63;5.10;;;17.20;99.90;;;;;;4997161;28;20180;-81
2021/07/16 04:27:05;;;;;;;14.37;4.77;;;17.20;99.90;;;;;;4980681;28;20188;-81
2021/07/16 04:29:31;;;;;;;15.53;5.77;;;17.00;99.90;;;;;;4980821;28;20538;-82
2021/07/16 04:31:57;;;;;;;16.10;5.00;;;17.00;99.90;;;;;;4997249;28;20675;-81
2021/07/16 04:34:23;;;;;;;19.63;4.93;;;17.10;99.90;;;;;;4980935;28;20211;-81
2021/07/16 04:36:48;;;;;;;17.67;5.57;;;17.10;99.90;;;;;;4980622;28;20176;-81
2021/07/16 04:39:14;;;;;;;15.30;5.07;;;17.10;99.90;;;;;;4980644;28;20203;-81
2021/07/16 04:41:40;;;;;;;12.97;5.10;;;17.20;99.90;;;;;;4981005;28;20197;-80
2021/07/16 04:44:05;;;;;;;16.87;5.40;;;17.10;99.90;;;;;;4980637;28;20180;-82
2021/07/16 04:46:31;;;;;;;20.90;5.37;;;17.20;99.90;;;;;;4996729;28;20203;-81
2021/07/16 04:48:56;;;;;;;19.57;5.63;;;17.10;99.90;;;;;;4980521;28;20180;-81
2021/07/16 04:51:29;;;;;;;23.13;5.57;;;17.20;99.90;;;;;;4980233;28;20577;-80
2021/07/16 04:53:55;;;;;;;16.33;5.17;;;17.10;99.90;;;;;;4980305;28;20680;-81
2021/07/16 04:56:20;;;;;;;15.33;5.33;;;17.10;99.90;;;;;;4980254;28;20191;-81
2021/07/16 04:58:46;;;;;;;18.00;5.33;;;17.10;99.90;;;;;;4980207;28;20663;-81
2021/07/16 05:01:12;;;;;;;18.17;4.83;;;17.20;99.90;;;;;;4980390;28;20204;-81
2021/07/16 05:03:37;;;;;;;18.77;5.30;;;17.20;99.90;;;;;;4979889;28;20192;-81
2021/07/16 05:06:03;;;;;;;20.60;6.30;;;17.40;99.90;;;;;;4979897;28;20188;-81
2021/07/16 05:08:29;;;;;;;16.03;6.20;;;17.30;99.90;;;;;;4980524;28;20187;-81
2021/07/16 05:10:55;;;;;;;12.77;6.07;;;17.30;99.90;;;;;;5001826;23;20691;-73
2021/07/16 05:13:20;;;;;;;18.03;6.67;;;17.50;99.90;;;;;;4973659;28;20232;-72
2021/07/16 05:15:46;;;;;;;18.50;6.47;;;17.50;99.90;;;;;;4974252;28;20177;-73
2021/07/16 05:18:11;;;;;;;17.73;6.80;;;17.50;99.90;;;;;;4974134;28;20228;-72
2021/07/16 05:20:37;;;;;;;21.10;7.57;;;17.40;99.90;;;;;;4973921;28;20187;-72
2021/07/16 05:23:03;;;;;;;20.90;7.07;;;17.30;99.90;;;;;;4974097;28;20193;-74
2021/07/16 05:25:28;;;;;;;19.73;7.33;;;17.40;99.90;;;;;;4958174;28;20193;-72
2021/07/16 05:27:54;;;;;;;17.63;7.13;;;17.40;99.90;;;;;;4975060;28;20173;-73
2021/07/16 05:30:19;;;;;;;18.43;7.23;;;17.50;99.90;;;;;;4975498;28;20205;-73
2021/07/16 05:32:45;;;;;;;18.77;7.03;;;17.50;99.90;;;;;;4957489;28;20299;-72
2021/07/16 05:35:11;;;;;;;16.13;6.30;;;17.50;99.90;;;;;;4975124;28;20236;-72
2021/07/16 05:37:36;;;;;;;18.57;6.90;;;17.50;99.90;;;;;;4942002;28;20268;-72
2021/07/16 05:40:02;;;;;;;15.57;6.13;;;17.40;99.90;;;;;;4974844;28;20197;-72
2021/07/16 05:42:28;;;;;;;20.20;6.90;;;17.40;99.90;;;;;;4973773;28;20200;-72
2021/07/16 05:44:53;;;;;;;19.67;6.70;;;17.40;99.90;;;;;;4973645;28;20184;-72
2021/07/16 05:47:20;;;;;;;15.87;5.90;;;17.30;99.90;;;;;;4973559;28;20221;-72
2021/07/16 05:49:45;;;;;;;14.87;6.40;;;17.40;99.90;;;;;;4973384;28;20260;-73
2021/07/16 05:52:11;;;;;;;20.20;6.93;;;17.30;99.90;;;;;;4974889;28;20235;-72
2021/07/16 05:54:36;;;;;;;18.70;6.37;;;17.50;99.90;;;;;;4974610;28;20248;-72
2021/07/16 05:57:02;;;;;;;16.80;6.53;;;17.30;99.90;;;;;;4974758;28;20173;-72
2021/07/16 05:59:28;;;;;;;17.37;6.53;;;17.30;99.90;;;;;;4974361;28;20173;-72
2021/07/16 06:01:53;;;;;;;16.30;6.00;;;17.30;99.90;;;;;;4974391;28;20250;-73
2021/07/16 06:04:19;;;;;;;21.37;6.50;;;17.40;99.90;;;;;;4973433;28;20181;-72
2021/07/16 06:06:46;;;;;;;15.90;6.23;;;17.30;99.90;;;;;;4973222;28;20216;-72
2021/07/16 06:09:12;;;;;;;18.30;6.20;;;17.30;99.90;;;;;;4972980;28;20228;-72
2021/07/16 06:11:37;;;;;;;19.40;5.80;;;17.30;99.90;;;;;;4974220;28;20698;-72
2021/07/16 06:14:03;;;;;;;19.53;5.83;;;17.30;99.90;;;;;;4973078;28;20649;-72
2021/07/16 06:16:29;;;;;;;18.20;5.80;;;17.40;99.90;;;;;;4957001;28;20181;-72
2021/07/16 06:18:54;;;;;;;17.50;6.13;;;17.20;99.90;;;;;;4972573;28;20553;-72
2021/07/16 06:21:20;;;;;;;19.67;6.00;;;17.40;99.90;;;;;;4983618;28;20207;-73
2021/07/16 06:23:46;;;;;;;23.50;5.83;;;17.30;99.90;;;;;;4972954;28;20185;-73
2021/07/16 06:26:12;;;;;;;24.33;6.40;;;17.30;99.90;;;;;;4973006;28;20188;-72
2021/07/16 06:28:37;;;;;;;21.87;6.30;;;17.30;99.90;;;;;;4974113;28;20651;-73
2021/07/16 06:31:03;;;;;;;15.23;6.00;;;17.30;99.90;;;;;;4953079;28;20177;-73
2021/07/16 06:33:29;;;;;;;19.73;6.40;;;17.30;99.90;;;;;;4965987;28;20213;-74
2021/07/16 06:35:54;;;;;;;20.07;5.97;;;17.30;99.90;;;;;;4963068;28;20360;-72
2021/07/16 06:38:20;;;;;;;24.80;6.77;;;17.40;99.90;;;;;;4956316;28;20189;-72
2021/07/16 06:40:45;;;;;;;19.60;6.50;;;17.30;99.90;;;;;;4972586;28;20546;-73
2021/07/16 06:43:11;;;;;;;17.43;5.93;;;17.50;99.90;;;;;;4970029;28;20682;-73
2021/07/16 06:45:37;;;;;;;21.47;6.57;;;17.40;99.90;;;;;;4973038;28;20203;-73
2021/07/16 06:48:04;;;;;;;15.53;5.30;;;17.60;99.90;;;;;;4973100;28;20183;-73
2021/07/16 06:50:30;;;;;;;16.10;5.87;;;17.70;99.90;;;;;;4970812;28;20235;-73
2021/07/16 06:52:55;;;;;;;18.93;5.53;;;17.60;99.90;;;;;;4971140;28;20200;-73
2021/07/16 06:55:21;;;;;;;18.03;5.77;;;17.70;99.90;;;;;;4972947;28;20181;-74
2021/07/16 06:57:46;;;;;;;19.10;5.57;;;17.80;99.90;;;;;;4972975;28;20191;-72
2021/07/16 07:00:12;;;;;;;20.67;5.93;;;18.00;99.90;;;;;;4972589;28;20209;-73
2021/07/16 07:02:38;;;;;;;22.33;6.43;;;17.80;99.90;;;;;;4971838;28;20200;-72
2021/07/16 07:05:05;;;;;;;19.53;5.53;;;17.80;99.90;;;;;;4973117;28;20184;-73
2021/07/16 07:07:30;;;;;;;22.93;6.67;;;17.80;99.90;;;;;;4969132;28;20184;-73
2021/07/16 07:09:56;;;;;;;21.43;6.50;;;17.80;99.90;;;;;;4970845;28;20177;-71
2021/07/16 07:12:21;;;;;;;22.10;5.67;;;17.80;99.90;;;;;;4969505;28;20212;-71
2021/07/16 07:14:47;;;;;;;25.57;6.20;;;17.80;99.90;;;;;;4971836;28;20201;-72
2021/07/16 07:17:13;;;;;;;20.30;5.87;;;17.80;99.90;;;;;;4955381;28;20176;-70
2021/07/16 07:19:38;;;;;;;25.90;6.30;;;17.90;99.90;;;;;;4972502;28;20255;-70
2021/07/16 07:22:04;;;;;;;26.53;6.63;;;17.80;99.90;;;;;;4971150;28;20668;-71
2021/07/16 07:24:30;;;;;;;21.30;6.03;;;17.80;99.90;;;;;;4972109;28;20539;-70
2021/07/16 07:26:57;;;;;;;24.00;5.67;;;17.80;99.90;;;;;;4971700;28;20660;-71
2021/07/16 07:29:23;;;;;;;20.03;6.27;;;17.80;99.90;;;;;;4971454;28;20188;-71
2021/07/16 07:31:49;;;;;;;19.47;6.17;;;17.90;99.90;;;;;;4973003;28;20201;-71
2021/07/16 07:34:14;;;;;;;20.83;5.60;;;17.90;99.90;;;;;;4952463;28;20268;-71
2021/07/16 07:36:40;;;;;;;15.60;5.17;;;17.90;99.90;;;;;;4980467;28;20173;-71
2021/07/16 07:39:06;;;;;;;17.80;5.10;;;18.00;99.90;;;;;;4956139;28;20265;-72
2021/07/16 07:41:31;;;;;;;22.97;5.47;;;18.00;99.90;;;;;;4978256;28;20192;-74
2021/07/16 07:43:57;;;;;;;22.07;5.57;;;18.00;99.90;;;;;;4961275;28;20680;-76
2021/07/16 07:46:23;;;;;;;17.77;5.40;;;18.10;99.90;;;;;;4963249;28;20713;-72
2021/07/16 07:48:49;;;;;;;21.57;5.87;;;18.10;99.90;;;;;;4962037;28;20181;-71
2021/07/16 07:51:14;;;;;;;16.07;5.73;;;18.10;99.90;;;;;;4978068;28;20228;-72
2021/07/16 07:53:40;;;;;;;24.43;6.03;;;18.10;99.90;;;;;;4978409;28;20239;-74
2021/07/16 07:56:06;;;;;;;21.10;5.80;;;18.10;99.90;;;;;;4978089;28;20176;-73
2021/07/16 07:58:31;;;;;;;18.07;5.30;;;18.20;99.90;;;;;;4961824;28;20231;-71
2021/07/16 08:00:57;;;;;;;20.80;5.60;;;18.20;99.90;;;;;;4977827;28;20184;-72
2021/07/16 08:03:22;;;;;;;17.60;5.90;;;18.20;99.90;;;;;;4961886;28;20248;-72
2021/07/16 08:05:48;;;;;;;22.97;5.00;;;18.20;99.90;;;;;;4961899;28;20183;-72
2021/07/16 08:08:13;;;;;;;22.27;5.50;;;18.20;99.90;;;;;;4977835;28;20199;-72
2021/07/16 08:10:39;;;;;;;16.70;5.20;;;18.20;99.90;;;;;;4993000;28;20578;-72
2021/07/16 08:13:05;;;;;;;21.47;5.53;;;18.20;99.90;;;;;;4977830;28;20216;-73
2021/07/16 08:15:30;;;;;;;20.80;5.17;;;18.30;99.90;;;;;;4977912;28;20263;-75
2021/07/16 08:17:56;;;;;;;16.83;5.00;;;18.30;99.90;;;;;;4978142;28;20180;-72
2021/07/16 08:20:21;;;;;;;21.30;5.13;;;18.40;99.90;;;;;;4979141;28;20177;-72
2021/07/16 08:22:47;;;;;;;21.70;5.23;;;18.40;99.90;;;;;;4961890;28;20207;-73
2021/07/16 08:25:12;;;;;;;21.80;5.50;;;18.40;99.90;;;;;;4978576;28;20177;-75
2021/07/16 08:27:39;;;;;;;20.43;5.23;;;18.40;99.90;;;;;;4962085;28;20185;-75
2021/07/16 08:30:05;;;;;;;21.23;5.73;;;18.40;99.90;;;;;;4978019;28;20169;-74
2021/07/16 08:32:31;;;;;;;20.00;5.00;;;18.40;99.90;;;;;;4961819;28;20203;-74
2021/07/16 08:34:56;;;;;;;23.27;5.17;;;18.40;99.90;;;;;;4977971;28;20346;-74
2021/07/16 08:37:22;;;;;;;18.70;5.47;;;18.40;99.90;;;;;;4977982;28;20173;-74
2021/07/16 08:39:47;;;;;;;26.13;5.40;;;18.30;99.90;;;;;;4977677;28;20535;-75
2021/07/16 08:42:14;;;;;;;19.40;5.50;;;18.30;99.90;;;;;;4977900;28;20684;-74
2021/07/16 08:44:41;;;;;;;18.80;4.80;;;18.40;99.90;;;;;;4961843;28;20564;-74
2021/07/16 08:47:07;;;;;;;19.13;5.00;;;18.40;99.90;;;;;;4976054;28;20196;-73
2021/07/16 08:49:33;;;;;;;16.50;5.20;;;18.40;99.90;;;;;;4959454;28;20177;-73
2021/07/16 08:51:59;;;;;;;20.77;5.27;;;18.50;99.90;;;;;;4974799;28;20570;-73
2021/07/16 08:54:24;;;;;;;18.17;5.07;;;18.70;99.90;;;;;;4974726;28;20201;-73
2021/07/16 08:56:50;;;;;;;23.57;5.30;;;18.60;99.90;;;;;;4958829;28;20673;-73
2021/07/16 08:59:16;;;;;;;17.97;4.77;;;18.60;99.90;;;;;;4975738;28;20173;-74
2021/07/16 09:01:46;;;;;;;14.47;4.87;;;18.70;99.90;;;;;;4958490;28;20197;-73
2021/07/16 09:04:11;;;;;;;15.63;4.93;;;18.70;99.90;;;;;;4959026;28;20174;-73
2021/07/16 09:06:51;;;;;;;19.17;5.10;;;18.60;99.90;;;;;;4974646;28;20185;-73
2021/07/16 09:09:19;;;;;;;15.77;4.50;;;18.70;99.90;;;;;;4974342;28;20169;-73
2021/07/16 09:11:47;;;;;;;18.20;4.87;;;18.80;99.90;;;;;;4958116;28;20225;-73
2021/07/16 09:14:33;;;;;;;18.90;4.63;;;18.80;99.90;;;;;;4974294;28;20683;-72
2021/07/16 09:17:06;;;;;;;17.70;4.87;;;18.70;99.90;;;;;;4975025;28;20263;-70
2021/07/16 09:19:33;;;;;;;19.50;4.77;;;18.80;99.90;;;;;;4985105;28;20181;-73
2021/07/16 09:22:00;;;;;;;13.47;4.83;;;18.90;99.90;;;;;;5009838;28;20192;-72
2021/07/16 09:24:26;;;;;;;14.87;4.70;;;19.00;99.90;;;;;;5009868;28;20203;-72
2021/07/16 09:26:51;;;;;;;17.73;5.17;;;18.80;99.90;;;;;;5009855;28;20184;-74
2021/07/16 09:29:32;;;;;;;17.73;5.10;;;19.00;99.90;;;;;;5009585;28;20180;-74
2021/07/16 09:32:02;;;;;;;22.63;5.40;;;19.10;99.90;;;;;;5009022;28;20196;-75
2021/07/16 09:34:27;;;;;;;17.10;5.00;;;19.10;99.90;;;;;;5010125;28;20806;-72
2021/07/16 09:36:53;;;;;;;25.27;4.93;;;19.20;99.90;;;;;;4994864;28;20254;-75
2021/07/16 09:39:20;;;;;;;23.57;4.97;;;19.20;99.90;;;;;;5009992;28;20203;-77
2021/07/16 09:41:51;;;;;;;21.17;5.17;;;19.20;99.90;;;;;;4977428;28;20610;-74
2021/07/16 09:44:26;;;;;;;67.23;19.47;;;19.20;99.90;;;;;;5009312;28;20172;-71
2021/07/16 09:47:13;;;;;;;39.80;14.20;;;19.30;99.90;;;;;;4993196;28;20670;-73
2021/07/16 09:49:39;;;;;;;20.57;4.70;;;19.40;99.90;;;;;;4994366;28;20157;-73
2021/07/16 09:52:07;;;;;;;18.70;4.97;;;19.20;99.90;;;;;;4993304;28;20204;-75
2021/07/16 09:54:32;;;;;;;20.20;4.90;;;19.30;99.90;;;;;;4993016;28;20282;-74
2021/07/16 09:56:58;;;;;;;19.00;4.77;;;19.20;99.90;;;;;;5009367;28;20263;-75
2021/07/16 09:59:27;;;;;;;18.37;6.00;;;19.20;99.90;;;;;;5007887;28;20254;-73
2021/07/16 10:01:53;;;;;;;21.73;5.00;;;19.30;99.90;;;;;;4993066;28;20192;-73
2021/07/16 10:04:23;;;;;;;23.17;5.17;;;19.30;99.90;;;;;;5009320;28;20183;-74
2021/07/16 10:06:53;;;;;;;13.50;4.23;;;19.40;99.90;;;;;;4977687;28;20212;-72
2021/07/16 10:09:20;;;;;;;19.80;4.90;;;19.50;99.90;;;;;;4964673;28;20185;-76
2021/07/16 10:11:50;;;;;;;19.33;4.97;;;19.60;99.90;;;;;;4951290;28;20313;-73
2021/07/16 10:14:16;;;;;;;13.63;4.90;;;19.60;99.90;;;;;;4938325;29;20217;-72
2021/07/16 10:16:43;;;;;;;16.87;4.97;;;19.70;99.90;;;;;;4940879;28;20177;-74
2021/07/16 10:19:09;;;;;;;17.57;4.87;;;19.80;99.90;;;;;;4981572;28;20177;-73
2021/07/16 10:21:37;;;;;;;19.50;4.43;;;19.80;99.90;;;;;;4970880;28;20205;-73
2021/07/16 10:24:03;;;;;;;18.97;4.67;;;19.70;99.90;;;;;;4967459;28;20177;-74
2021/07/16 10:26:28;;;;;;;19.23;4.57;;;19.80;99.90;;;;;;4956014;28;20192;-73
2021/07/16 10:28:55;;;;;;;14.90;4.70;;;19.80;99.90;;;;;;4954566;28;20190;-76
2021/07/16 10:31:32;;;;;;;14.87;4.30;;;19.70;99.90;;;;;;4964754;28;20209;-76
2021/07/16 10:34:02;;;;;;;17.40;4.83;;;19.70;99.90;;;;;;4972641;28;20215;-77
2021/07/16 10:36:36;;;;;;;24.07;4.93;;;19.80;99.90;;;;;;4972930;28;20678;-73
2021/07/16 10:39:03;;;;;;;16.13;4.63;;;19.90;99.90;;;;;;4973610;28;20179;-75
2021/07/16 10:41:32;;;;;;;18.23;4.47;;;19.80;99.90;;;;;;4955008;28;20208;-76
2021/07/16 10:43:58;;;;;;;16.33;3.73;;;19.90;99.90;;;;;;4963682;28;20680;-72
2021/07/16 10:46:31;;;;;;;11.43;3.93;;;19.80;99.90;;;;;;4938103;28;20190;-73
2021/07/16 10:48:56;;;;;;;19.57;5.00;;;19.80;99.90;;;;;;4951104;28;20181;-75
2021/07/16 10:51:30;;;;;;;20.90;4.63;;;19.80;99.90;;;;;;4971005;28;20794;-73
2021/07/16 10:53:57;;;;;;;21.80;5.20;;;19.80;99.90;;;;;;4966484;28;20200;-72
2021/07/16 10:56:44;;;;;;;15.67;4.50;;;19.80;99.90;;;;;;4976857;28;20185;-72
2021/07/16 10:59:11;;;;;;;19.63;5.03;;;19.80;99.90;;;;;;4976591;28;20597;-73
2021/07/16 11:01:39;;;;;;;19.83;4.87;;;19.70;99.90;;;;;;4964489;28;20200;-76
2021/07/16 11:04:29;;;;;;;19.07;5.07;;;19.70;99.90;;;;;;4956935;28;20715;-72
2021/07/16 11:06:57;;;;;;;14.13;4.63;;;19.80;99.90;;;;;;4969619;28;20177;-73
2021/07/16 11:09:51;;;;;;;13.87;4.77;;;19.80;99.90;;;;;;4972053;28;20268;-73
2021/07/16 11:12:24;;;;;;;18.67;5.47;;;19.80;99.90;;;;;;4969681;23;20244;-85
2021/07/16 11:14:50;;;;;;;18.73;5.10;;;19.80;99.90;;;;;;4920605;29;20412;-81
2021/07/16 11:17:30;;;;;;;21.93;5.47;;;19.80;99.90;;;;;;4926487;29;20186;-81
2021/07/16 11:20:16;;;;;;;20.23;5.37;;;19.70;99.90;;;;;;4938592;29;20169;-82
2021/07/16 11:22:57;;;;;;;19.43;4.73;;;19.70;99.90;;;;;;4958529;28;20215;-81
2021/07/16 11:25:23;;;;;;;17.23;5.43;;;19.80;99.90;;;;;;4972548;28;20177;-79
2021/07/16 11:27:49;;;;;;;17.80;5.00;;;19.80;99.90;;;;;;4964662;28;20189;-82
2021/07/16 11:30:14;;;;;;;19.90;5.13;;;19.80;99.90;;;;;;4969150;28;20641;-81
2021/07/16 11:32:40;;;;;;;18.37;5.23;;;19.90;99.90;;;;;;4928977;29;20680;-82
2021/07/16 11:35:06;;;;;;;14.70;4.77;;;20.00;99.90;;;;;;4964470;28;20240;-83
2021/07/16 11:37:45;;;;;;;20.10;4.83;;;20.00;99.90;;;;;;4947112;28;20668;-82
2021/07/16 11:40:18;;;;;;;19.03;5.00;;;20.00;99.90;;;;;;4929190;29;20175;-83
2021/07/16 11:42:46;;;;;;;20.90;5.40;;;20.10;99.90;;;;;;4959636;28;20268;-82
2021/07/16 11:45:18;;;;;;;18.53;5.53;;;20.20;99.90;;;;;;4936654;29;20237;-82
2021/07/16 11:47:43;;;;;;;18.80;5.33;;;20.30;99.90;;;;;;4946127;28;20261;-81
2021/07/16 11:50:10;;;;;;;13.60;4.90;;;20.30;99.90;;;;;;4979569;28;20209;-82
2021/07/16 11:52:36;;;;;;;19.13;4.90;;;20.20;99.90;;;;;;4954526;28;20550;-82
2021/07/16 11:55:05;;;;;;;18.60;4.80;;;20.20;99.90;;;;;;4970454;28;20201;-81
2021/07/16 11:57:30;;;;;;;19.27;5.20;;;20.20;99.90;;;;;;4973849;28;20185;-81
2021/07/16 11:59:56;;;;;;;24.57;5.17;;;20.20;99.90;;;;;;4954964;28;20233;-79
2021/07/16 12:02:22;;;;;;;16.10;4.80;;;20.20;99.90;;;;;;4971640;28;20193;-80
2021/07/16 12:04:49;;;;;;;18.00;5.37;;;20.20;99.90;;;;;;4971260;28;20271;-81
2021/07/16 12:07:16;;;;;;;17.33;4.87;;;20.30;99.90;;;;;;4974514;28;20264;-80
2021/07/16 12:09:45;;;;;;;14.53;4.50;;;20.30;99.90;;;;;;4981665;28;20204;-79
2021/07/16 12:12:12;;;;;;;18.67;5.27;;;20.30;99.90;;;;;;4952433;29;20221;-80
2021/07/16 12:14:54;;;;;;;17.13;5.17;;;20.40;99.90;;;;;;4937403;29;20292;-81
2021/07/16 12:17:25;;;;;;;21.30;4.93;;;20.50;99.90;;;;;;4950782;29;20177;-82
2021/07/16 12:19:51;;;;;;;18.77;5.03;;;20.50;99.90;;;;;;4950707;29;20164;-82
2021/07/16 12:22:19;;;;;;;17.20;5.23;;;20.60;99.90;;;;;;4936035;29;20197;-81
2021/07/16 12:24:45;;;;;;;15.30;4.73;;;20.50;99.90;;;;;;4957545;28;20211;-80
2021/07/16 12:27:14;;;;;;;21.57;5.40;;;20.50;99.90;;;;;;4958721;28;20656;-80
2021/07/16 12:29:39;;;;;;;17.83;5.13;;;20.40;99.90;;;;;;4942027;29;20558;-79
2021/07/16 12:32:06;;;;;;;20.00;5.87;;;20.40;99.90;;;;;;4942064;29;20284;-79
2021/07/16 12:34:31;;;;;;;18.13;5.80;;;20.50;99.90;;;;;;4942295;29;20213;-80
2021/07/16 12:37:16;;;;;;;20.83;5.30;;;20.50;99.90;;;;;;4942385;29;20212;-79